createdAt,value
2019-04-16T00:02:07.511Z,58.00
2019-04-16T00:05:11.180Z,58.17
2019-04-16T00:07:47.112Z,58.34
2019-04-16T00:10:34.465Z,58.66
2019-04-16T00:13:23.646Z,58.90
2019-04-16T00:15:55.048Z,58.96
2019-04-16T00:18:24.659Z,58.97
2019-04-16T00:21:13.365Z,59.10
2019-04-16T00:23:56.928Z,59.17
2019-04-16T00:26:27.487Z,59.39
2019-04-16T00:29:01.657Z,59.67
2019-04-16T00:31:28.834Z,59.89
2019-04-16T00:33:58.504Z,60.02
2019-04-16T00:36:28.233Z,60.27
2019-04-16T00:38:57.893Z,60.49
2019-04-16T00:41:28.022Z,60.62
2019-04-16T00:43:57.687Z,60.74
2019-04-16T00:46:27.407Z,60.91
2019-04-16T00:48:57.145Z,61.07
2019-04-16T00:51:26.827Z,61.05
2019-04-16T00:53:56.948Z,61.06
2019-04-16T00:56:27.303Z,61.12
2019-04-16T00:58:56.997Z,61.27
2019-04-16T01:01:26.655Z,61.50
2019-04-16T01:03:56.389Z,61.70
2019-04-16T01:06:26.978Z,61.86
2019-04-16T01:08:56.660Z,62.07
2019-04-16T01:11:26.371Z,62.36
2019-04-16T01:13:56.318Z,62.58
2019-04-16T01:16:26.213Z,62.34
2019-04-16T01:18:56.066Z,62.58
2019-04-16T01:21:25.720Z,62.57
2019-04-16T01:23:55.384Z,62.53
2019-04-16T01:26:26.881Z,62.55
2019-04-16T01:29:04.413Z,62.68
2019-04-16T01:31:55.897Z,62.68
2019-04-16T01:34:48.425Z,62.73
2019-04-16T01:37:35.575Z,62.92
2019-04-16T01:40:06.457Z,63.07
2019-04-16T01:42:36.120Z,63.06
2019-04-16T01:45:06.358Z,63.15
2019-04-16T01:47:37.267Z,63.02
2019-04-16T01:50:07.710Z,63.16
2019-04-16T01:52:37.474Z,63.13
2019-04-16T01:55:07.295Z,63.48
2019-04-16T01:57:37.039Z,63.58
2019-04-16T02:00:08.552Z,63.55
2019-04-16T02:02:39.446Z,63.52
2019-04-16T02:05:09.260Z,63.57
2019-04-16T02:07:38.920Z,63.50
2019-04-16T02:10:08.886Z,63.54
2019-04-16T02:12:38.503Z,63.52
2019-04-16T02:15:09.227Z,63.47
2019-04-16T02:17:38.872Z,63.35
2019-04-16T02:20:09.300Z,63.50
2019-04-16T02:22:38.949Z,63.63
2019-04-16T02:25:09.066Z,63.70
2019-04-16T02:27:38.713Z,63.87
2019-04-16T02:30:08.755Z,63.96
2019-04-16T02:32:38.383Z,64.07
2019-04-16T02:35:08.324Z,64.18
2019-04-16T02:37:37.991Z,64.13
2019-04-16T02:40:16.958Z,64.08
2019-04-16T02:42:40.626Z,64.20
2019-04-16T02:45:10.496Z,64.30
2019-04-16T02:47:42.148Z,64.41
2019-04-16T02:50:15.912Z,64.49
2019-04-16T02:52:56.251Z,64.76
2019-04-16T02:55:35.397Z,64.76
2019-04-16T02:58:11.773Z,64.73
2019-04-16T03:01:02.229Z,65.05
2019-04-16T03:03:39.331Z,65.08
2019-04-16T03:06:09.080Z,65.25
2019-04-16T03:08:38.846Z,65.30
2019-04-16T03:11:08.579Z,65.47
2019-04-16T03:13:38.238Z,65.42
2019-04-16T03:16:24.893Z,65.44
2019-04-16T03:19:06.250Z,65.54
2019-04-16T03:21:36.123Z,65.68
2019-04-16T03:24:09.053Z,65.76
2019-04-16T03:26:37.245Z,65.84
2019-04-16T03:29:07.003Z,65.95
2019-04-16T03:31:36.674Z,66.09
2019-04-16T03:34:06.534Z,66.09
2019-04-16T03:36:36.201Z,66.31
2019-04-16T03:39:12.027Z,66.28
2019-04-16T03:41:38.500Z,66.41
2019-04-16T03:44:08.153Z,66.47
2019-04-16T03:46:40.108Z,66.69
2019-04-16T03:49:09.221Z,66.77
2019-04-16T03:51:38.887Z,66.65
2019-04-16T03:54:08.562Z,66.83
2019-04-16T03:56:38.233Z,67.05
2019-04-16T03:59:11.851Z,66.90
2019-04-16T04:01:39.239Z,66.99
2019-04-16T04:04:09.111Z,67.08
2019-04-16T04:06:39.687Z,67.18
2019-04-16T04:09:10.162Z,67.11
2019-04-16T04:11:41.157Z,67.12
2019-04-16T04:14:11.281Z,67.16
2019-04-16T04:16:40.970Z,67.29
2019-04-16T04:19:14.092Z,67.31
2019-04-16T04:21:42.121Z,67.39
2019-04-16T04:24:11.786Z,67.49
2019-04-16T04:26:42.419Z,67.48
2019-04-16T04:29:13.207Z,67.54
2019-04-16T04:31:42.875Z,67.56
2019-04-16T04:34:15.955Z,67.46
2019-04-16T04:36:43.927Z,67.41
2019-04-16T04:39:15.483Z,66.66
2019-04-16T04:41:44.963Z,66.06
2019-04-16T04:44:14.622Z,64.70
2019-04-16T04:46:46.063Z,63.43
2019-04-16T04:49:16.859Z,62.05
2019-04-16T04:51:46.533Z,60.99
2019-04-16T04:54:16.230Z,59.93
2019-04-16T04:56:45.892Z,59.35
2019-04-16T04:59:15.680Z,58.46
2019-04-16T05:01:45.327Z,57.61
2019-04-16T05:04:42.803Z,56.60
2019-04-16T05:07:12.876Z,56.02
2019-04-16T05:09:42.534Z,55.19
2019-04-16T05:12:12.182Z,54.41
2019-04-16T05:14:57.114Z,53.31
2019-04-16T05:17:24.827Z,52.86
2019-04-16T05:19:54.594Z,52.24
2019-04-16T05:22:24.266Z,51.66
2019-04-16T05:24:53.941Z,51.05
2019-04-16T05:27:23.609Z,50.32
2019-04-16T05:29:53.340Z,49.38
2019-04-16T05:32:25.927Z,49.09
2019-04-16T05:34:55.074Z,48.43
2019-04-16T05:37:24.850Z,48.07
2019-04-16T05:39:58.560Z,47.50
2019-04-16T05:42:26.393Z,47.00
2019-04-16T05:44:56.257Z,46.55
2019-04-16T05:47:25.900Z,46.37
2019-04-16T05:49:58.063Z,45.89
2019-04-16T05:52:26.941Z,45.71
2019-04-16T05:55:04.577Z,45.14
2019-04-16T05:57:36.262Z,44.61
2019-04-16T06:00:10.365Z,43.77
2019-04-16T06:02:42.041Z,43.47
2019-04-16T06:05:11.950Z,43.28
2019-04-16T06:07:42.576Z,42.44
2019-04-16T06:10:16.702Z,42.09
2019-04-16T06:12:58.318Z,41.74
2019-04-16T06:15:36.010Z,41.41
2019-04-16T06:18:23.125Z,41.45
2019-04-16T06:21:22.602Z,41.31
2019-04-16T06:24:04.247Z,40.15
2019-04-16T06:26:55.996Z,39.49
2019-04-16T06:29:46.912Z,39.02
2019-04-16T06:32:43.977Z,38.19
2019-04-16T06:35:44.381Z,37.93
2019-04-16T06:38:18.202Z,37.90
2019-04-16T06:40:54.803Z,37.76
2019-04-16T06:43:29.744Z,36.90
2019-04-16T06:46:21.143Z,36.92
2019-04-16T06:49:02.067Z,37.26
2019-04-16T06:52:05.570Z,36.83
2019-04-16T06:54:52.908Z,35.96
2019-04-16T06:57:43.870Z,35.73
2019-04-16T07:00:25.140Z,35.35
2019-04-16T07:03:12.471Z,35.59
2019-04-16T07:06:04.851Z,36.01
2019-04-16T07:08:52.256Z,35.44
2019-04-16T07:11:22.345Z,35.11
2019-04-16T07:13:52.003Z,34.77
2019-04-16T07:16:21.661Z,34.23
2019-04-16T07:18:51.332Z,33.96
2019-04-16T07:21:21.050Z,33.54
2019-04-16T07:23:56.847Z,32.79
2019-04-16T07:26:22.183Z,32.44
2019-04-16T07:28:58.979Z,32.67
2019-04-16T07:31:34.487Z,32.63
2019-04-16T07:34:27.588Z,31.97
2019-04-16T07:37:07.478Z,31.79
2019-04-16T07:39:50.059Z,31.11
2019-04-16T07:42:27.115Z,30.15
2019-04-16T07:45:13.142Z,30.62
2019-04-16T07:48:05.645Z,30.88
2019-04-16T07:50:53.164Z,30.32
2019-04-16T07:53:41.478Z,29.88
2019-04-16T07:56:16.081Z,30.17
2019-04-16T07:58:45.741Z,29.98
2019-04-16T08:01:16.502Z,29.63
2019-04-16T08:03:46.465Z,29.91
2019-04-16T08:06:16.171Z,28.95
2019-04-16T08:08:45.916Z,28.38
2019-04-16T08:11:15.700Z,28.00
2019-04-16T08:13:45.907Z,28.05
2019-04-16T08:16:15.621Z,27.50
2019-04-16T08:18:49.738Z,27.24
2019-04-16T08:21:22.604Z,26.67
2019-04-16T08:23:56.908Z,26.87
2019-04-16T08:26:26.592Z,27.16
2019-04-16T08:28:56.282Z,27.29
2019-04-16T08:31:28.300Z,26.62
2019-04-16T08:33:58.138Z,26.61
2019-04-16T08:36:27.823Z,26.76
2019-04-16T08:38:57.708Z,26.55
2019-04-16T08:41:27.483Z,25.93
2019-04-16T08:43:59.720Z,25.34
2019-04-16T08:46:28.554Z,25.68
2019-04-16T08:48:58.246Z,27.12
2019-04-16T08:51:31.269Z,25.66
2019-04-16T08:54:00.376Z,25.49
2019-04-16T08:56:30.055Z,25.02
2019-04-16T08:59:01.236Z,23.24
2019-04-16T09:01:33.011Z,24.58
2019-04-16T09:04:03.252Z,25.00
2019-04-16T09:06:32.956Z,25.14
2019-04-16T09:09:13.534Z,24.67
2019-04-16T09:11:44.348Z,24.66
2019-04-16T09:14:16.849Z,23.95
2019-04-16T09:16:56.249Z,24.44
2019-04-16T09:19:25.960Z,25.16
2019-04-16T09:21:56.591Z,24.37
2019-04-16T09:24:32.557Z,24.85
2019-04-16T09:27:20.270Z,24.09
2019-04-16T09:30:10.788Z,24.65
2019-04-16T09:32:44.278Z,24.78
2019-04-16T09:35:20.601Z,24.05
2019-04-16T09:38:13.187Z,23.93
2019-04-16T09:40:52.983Z,23.92
2019-04-16T09:43:23.893Z,23.91
2019-04-16T09:45:54.144Z,23.67
2019-04-16T09:48:23.880Z,22.09
2019-04-16T09:50:53.554Z,22.46
2019-04-16T09:53:33.483Z,24.37
2019-04-16T09:55:54.767Z,23.61
2019-04-16T09:58:25.204Z,22.29
2019-04-16T10:01:02.398Z,21.71
2019-04-16T10:03:35.046Z,21.75
2019-04-16T10:06:17.216Z,21.51
2019-04-16T10:08:46.881Z,22.35
2019-04-16T10:11:18.780Z,20.96
2019-04-16T10:13:48.002Z,21.56
2019-04-16T10:16:19.790Z,21.62
2019-04-16T10:18:49.543Z,20.46
2019-04-16T10:21:20.340Z,20.75
2019-04-16T10:24:12.978Z,20.48
2019-04-16T10:26:41.170Z,21.22
2019-04-16T10:29:14.272Z,21.33
2019-04-16T10:31:44.001Z,21.20
2019-04-16T10:34:13.675Z,21.26
2019-04-16T10:36:43.375Z,21.47
2019-04-16T10:39:30.437Z,21.13
2019-04-16T10:42:14.719Z,21.45
2019-04-16T10:45:06.416Z,21.55
2019-04-16T10:47:48.615Z,20.89
2019-04-16T10:50:28.398Z,21.05
2019-04-16T10:53:24.097Z,20.09
2019-04-16T10:56:11.258Z,21.31
2019-04-16T10:59:07.240Z,22.42
2019-04-16T11:04:48.271Z,22.41
2019-04-16T11:07:21.867Z,21.72
2019-04-16T11:09:51.519Z,22.38
2019-04-16T11:12:21.281Z,22.18
2019-04-16T11:14:51.132Z,21.54
2019-04-16T11:17:22.523Z,21.52
2019-04-16T11:19:54.122Z,22.01
2019-04-16T11:22:24.013Z,22.45
2019-04-16T11:24:53.661Z,22.27
2019-04-16T11:27:23.338Z,21.49
2019-04-16T11:29:53.017Z,22.63
2019-04-16T11:32:25.963Z,22.86
2019-04-16T11:34:56.721Z,22.56
2019-04-16T11:37:26.360Z,22.12
2019-04-16T11:39:56.177Z,22.74
2019-04-16T11:42:25.844Z,22.21
2019-04-16T11:44:55.599Z,22.31
2019-04-16T11:47:28.030Z,22.09
2019-04-16T11:49:56.658Z,22.37
2019-04-16T11:52:26.375Z,22.74
2019-04-16T11:54:56.066Z,22.87
2019-04-16T11:57:25.804Z,21.80
2019-04-16T12:00:06.454Z,22.28
2019-04-16T12:02:33.712Z,22.23
2019-04-16T12:05:11.878Z,22.12
2019-04-16T12:07:55.457Z,23.24
2019-04-16T12:10:57.836Z,21.94
2019-04-16T12:13:45.103Z,23.68
2019-04-16T12:16:39.631Z,22.31
2019-04-16T12:19:17.003Z,21.96
2019-04-16T12:22:04.365Z,23.21
2019-04-16T12:25:05.059Z,21.19
2019-04-16T12:28:12.494Z,21.51
2019-04-16T12:30:54.272Z,22.79
2019-04-16T12:33:49.207Z,22.75
2019-04-16T12:36:32.959Z,22.76
2019-04-16T12:39:11.912Z,22.66
2019-04-16T12:42:10.581Z,22.32
2019-04-16T12:44:48.949Z,22.12
2019-04-16T12:47:36.117Z,23.65
2019-04-16T12:50:16.703Z,22.26
2019-04-16T12:52:58.805Z,23.04
2019-04-16T12:55:37.760Z,22.57
2019-04-16T12:58:38.584Z,21.85
2019-04-16T13:01:25.381Z,22.32
2019-04-16T13:04:06.559Z,23.07
2019-04-16T13:06:55.265Z,23.50
2019-04-16T13:09:29.773Z,23.78
2019-04-16T13:12:17.541Z,25.13
2019-04-16T13:15:12.197Z,25.58
2019-04-16T13:18:04.744Z,25.62
2019-04-16T13:20:57.064Z,28.02
2019-04-16T13:23:44.057Z,25.18
2019-04-16T13:26:31.117Z,26.18
2019-04-16T13:29:03.070Z,26.38
2019-04-16T13:31:32.821Z,26.47
2019-04-16T13:34:02.551Z,27.89
2019-04-16T13:36:32.225Z,26.06
2019-04-16T13:39:15.576Z,27.25
2019-04-16T13:41:45.260Z,26.92
2019-04-16T13:44:17.211Z,26.37
2019-04-16T13:46:47.972Z,26.46
2019-04-16T13:49:24.492Z,26.32
2019-04-16T13:51:57.310Z,26.43
2019-04-16T13:54:44.558Z,27.38
2019-04-16T13:57:16.769Z,25.62
2019-04-16T14:00:02.974Z,27.01
2019-04-16T14:02:52.041Z,27.91
2019-04-16T14:05:23.666Z,26.79
2019-04-16T14:07:53.318Z,26.17
2019-04-16T14:10:23.348Z,25.35
2019-04-16T14:12:53.060Z,25.61
2019-04-16T14:15:31.763Z,26.20
2019-04-16T14:17:59.176Z,25.16
2019-04-16T14:20:27.396Z,26.75
2019-04-16T14:22:57.105Z,26.79
2019-04-16T14:25:26.786Z,26.48
2019-04-16T14:28:01.924Z,26.71
2019-04-16T14:30:32.415Z,24.65
2019-04-16T14:33:02.138Z,25.32
2019-04-16T14:35:34.363Z,25.86
2019-04-16T14:38:04.221Z,26.81
2019-04-16T14:40:35.209Z,25.96
2019-04-16T14:43:04.872Z,27.88
2019-04-16T14:45:55.224Z,24.74
2019-04-16T14:48:10.179Z,25.44
2019-04-16T14:50:40.103Z,24.58
2019-04-16T14:53:10.130Z,25.65
2019-04-16T14:55:59.804Z,26.43
2019-04-16T14:58:38.062Z,26.63
2019-04-16T15:01:38.681Z,26.66
2019-04-16T15:04:21.636Z,26.40
2019-04-16T15:07:05.986Z,25.06
2019-04-16T15:09:50.026Z,24.56
2019-04-16T15:12:35.730Z,25.46
2019-04-16T15:15:16.140Z,25.18
2019-04-16T15:18:06.258Z,26.99
2019-04-16T15:20:58.246Z,25.12
2019-04-16T15:23:49.643Z,23.89
2019-04-16T15:26:37.149Z,25.79
2019-04-16T15:29:23.424Z,26.97
2019-04-16T15:32:17.758Z,26.54
2019-04-16T15:34:48.490Z,27.37
2019-04-16T15:37:25.682Z,25.45
2019-04-16T15:39:59.940Z,24.93
2019-04-16T15:42:49.060Z,24.62
2019-04-16T15:45:25.635Z,25.81
2019-04-16T15:48:14.869Z,25.07
2019-04-16T15:51:25.222Z,25.69
2019-04-16T15:54:16.868Z,25.96
2019-04-16T15:57:11.374Z,24.72
2019-04-16T15:59:51.569Z,25.36
2019-04-16T16:02:36.704Z,25.59
2019-04-16T16:05:26.849Z,26.01
2019-04-16T16:08:14.520Z,26.19
2019-04-16T16:10:49.433Z,25.58
2019-04-16T16:13:19.123Z,24.70
2019-04-16T16:15:48.839Z,24.84
2019-04-16T16:18:18.745Z,25.07
2019-04-16T16:20:48.471Z,25.20
2019-04-16T16:23:18.550Z,25.58
2019-04-16T16:25:48.399Z,25.81
2019-04-16T16:28:18.219Z,26.16
2019-04-16T16:30:47.931Z,26.13
2019-04-16T16:33:17.870Z,26.57
2019-04-16T16:35:57.634Z,25.32
2019-04-16T16:38:21.004Z,25.99
2019-04-16T16:40:50.655Z,26.82
2019-04-16T16:43:20.462Z,26.66
2019-04-16T16:46:00.889Z,26.59
2019-04-16T16:48:30.656Z,27.58
2019-04-16T16:51:00.619Z,28.88
2019-04-16T16:53:36.488Z,28.62
2019-04-16T16:56:13.603Z,27.79
2019-04-16T16:58:51.814Z,28.14
2019-04-16T17:01:39.335Z,27.20
2019-04-16T17:04:20.199Z,27.80
2019-04-16T17:06:50.065Z,28.10
2019-04-16T17:09:31.229Z,28.57
2019-04-16T17:12:01.371Z,28.23
2019-04-16T17:14:36.216Z,28.31
2019-04-16T17:17:13.329Z,28.26
2019-04-16T17:19:34.326Z,27.99
2019-04-16T17:22:04.091Z,28.68
2019-04-16T17:24:33.791Z,28.99
2019-04-16T17:27:03.688Z,28.98
2019-04-16T17:29:33.470Z,28.73
2019-04-16T17:32:03.298Z,29.05
2019-04-16T17:34:33.009Z,29.40
2019-04-16T17:37:02.771Z,29.26
2019-04-16T17:39:52.778Z,29.83
2019-04-16T17:42:28.268Z,29.77
2019-04-16T17:45:15.502Z,29.98
2019-04-16T17:48:10.074Z,29.75
2019-04-16T17:50:54.932Z,30.34
2019-04-16T17:53:55.758Z,30.49
2019-04-16T17:56:43.031Z,30.44
2019-04-16T17:59:16.684Z,30.45
2019-04-16T18:02:03.802Z,30.89
2019-04-16T18:04:44.596Z,30.98
2019-04-16T18:07:22.044Z,30.89
2019-04-16T18:10:18.987Z,31.04
2019-04-16T18:13:11.088Z,30.94
2019-04-16T18:16:08.428Z,30.96
2019-04-16T18:18:48.467Z,31.16
2019-04-16T18:21:24.448Z,31.32
2019-04-16T18:23:59.768Z,31.42
2019-04-16T18:26:48.490Z,31.80
2019-04-16T18:29:31.826Z,31.78
2019-04-16T18:32:03.706Z,31.81
2019-04-16T18:35:16.079Z,31.97
2019-04-16T18:37:51.774Z,32.16
2019-04-16T18:40:30.040Z,32.56
2019-04-16T18:43:12.808Z,32.92
2019-04-16T18:46:07.270Z,33.04
2019-04-16T18:48:38.528Z,33.37
2019-04-16T18:51:08.196Z,33.54
2019-04-16T18:53:40.330Z,33.74
2019-04-16T18:56:09.690Z,33.62
2019-04-16T18:58:41.700Z,34.08
2019-04-16T19:01:13.827Z,34.13
2019-04-16T19:03:43.593Z,34.01
2019-04-16T19:06:13.290Z,34.11
2019-04-16T19:08:43.064Z,34.18
2019-04-16T19:11:12.960Z,34.20
2019-04-16T19:13:42.632Z,34.22
2019-04-16T19:16:12.458Z,34.30
2019-04-16T19:18:42.134Z,34.33
2019-04-16T19:21:11.802Z,34.46
2019-04-16T19:23:41.472Z,34.57
2019-04-16T19:26:11.153Z,35.00
2019-04-16T19:28:40.824Z,34.73
2019-04-16T19:31:10.518Z,35.03
2019-04-16T19:33:40.174Z,34.90
2019-04-16T19:36:09.933Z,34.67
2019-04-16T19:38:40.635Z,34.85
2019-04-16T19:41:10.330Z,35.07
2019-04-16T19:43:40.068Z,34.74
2019-04-16T19:46:14.947Z,34.70
2019-04-16T19:48:41.132Z,34.58
2019-04-16T19:51:10.795Z,34.39
2019-04-16T19:53:40.487Z,34.35
2019-04-16T19:56:10.147Z,34.40
2019-04-16T19:58:39.826Z,34.27
2019-04-16T20:01:11.991Z,34.26
2019-04-16T20:03:43.381Z,34.33
2019-04-16T20:06:12.465Z,34.20
2019-04-16T20:08:42.202Z,34.08
2019-04-16T20:11:11.902Z,34.29
2019-04-16T20:13:41.754Z,34.51
2019-04-16T20:16:11.876Z,34.48
2019-04-16T20:18:50.827Z,34.54
2019-04-16T20:21:13.168Z,34.41
2019-04-16T20:23:42.850Z,34.75
2019-04-16T20:26:12.517Z,34.78
2019-04-16T20:28:42.331Z,34.97
2019-04-16T20:31:13.617Z,34.93
2019-04-16T20:33:43.321Z,35.12
2019-04-16T20:36:12.976Z,34.98
2019-04-16T20:38:42.655Z,35.09
2019-04-16T20:41:12.306Z,35.36
2019-04-16T20:43:41.977Z,35.30
2019-04-16T20:46:11.631Z,35.03
2019-04-16T20:48:41.931Z,35.39
2019-04-16T20:51:12.698Z,35.49
2019-04-16T20:53:42.409Z,35.78
2019-04-16T20:56:12.070Z,35.74
2019-04-16T20:58:41.734Z,35.58
2019-04-16T21:01:11.393Z,35.81
2019-04-16T21:03:41.082Z,35.88
2019-04-16T21:06:10.748Z,36.06
2019-04-16T21:08:40.445Z,35.81
2019-04-16T21:11:10.092Z,36.03
2019-04-16T21:13:39.754Z,35.94
2019-04-16T21:16:09.439Z,35.94
2019-04-16T21:18:39.097Z,36.28
2019-04-16T21:21:08.770Z,36.57
2019-04-16T21:23:38.458Z,36.48
2019-04-16T21:26:08.107Z,36.76
2019-04-16T21:28:42.857Z,36.55
2019-04-16T21:31:18.334Z,36.63
2019-04-16T21:33:59.051Z,37.01
2019-04-16T21:36:59.462Z,36.98
2019-04-16T21:39:36.714Z,37.09
2019-04-16T21:42:06.445Z,37.20
2019-04-16T21:44:36.261Z,37.38
2019-04-16T21:47:05.945Z,37.42
2019-04-16T21:49:38.828Z,37.43
2019-04-16T21:52:07.077Z,37.49
2019-04-16T21:54:38.814Z,37.45
2019-04-16T21:57:13.156Z,37.35
2019-04-16T21:59:40.379Z,37.60
2019-04-16T22:02:27.554Z,37.69
2019-04-16T22:04:57.327Z,37.80
2019-04-16T22:07:27.095Z,38.03
2019-04-16T22:09:56.760Z,38.02
2019-04-16T22:12:26.578Z,37.99
2019-04-16T22:14:56.345Z,38.01
2019-04-16T22:17:25.993Z,38.07
2019-04-16T22:20:01.464Z,38.14
2019-04-16T22:22:27.819Z,38.34
2019-04-16T22:24:58.156Z,38.41
2019-04-16T22:27:27.820Z,38.59
2019-04-16T22:29:57.490Z,38.81
2019-04-16T22:32:30.883Z,38.93
2019-04-16T22:34:58.534Z,38.50
2019-04-16T22:37:28.181Z,38.54
2019-04-16T22:40:22.882Z,38.30
2019-04-16T22:43:06.258Z,38.48
2019-04-16T22:45:56.492Z,38.59
2019-04-16T22:48:26.154Z,38.55
2019-04-16T22:50:55.871Z,38.64
2019-04-16T22:53:25.545Z,38.77
2019-04-16T22:55:58.046Z,38.71
2019-04-16T22:58:47.023Z,38.70
2019-04-16T23:01:17.344Z,38.89
2019-04-16T23:03:49.761Z,38.90
2019-04-16T23:06:19.575Z,39.08
2019-04-16T23:08:50.246Z,39.34
2019-04-16T23:11:23.239Z,39.42
2019-04-16T23:13:51.344Z,39.44
2019-04-16T23:16:21.052Z,39.29
2019-04-16T23:18:50.772Z,39.39
2019-04-16T23:21:20.604Z,39.30
2019-04-16T23:23:51.243Z,39.22
2019-04-16T23:26:21.636Z,39.17
2019-04-16T23:28:51.262Z,39.15
2019-04-16T23:31:22.566Z,39.15
2019-04-16T23:33:52.381Z,39.09
2019-04-16T23:36:22.056Z,39.44
2019-04-16T23:38:51.801Z,39.38
2019-04-16T23:41:21.461Z,39.32
2019-04-16T23:44:00.204Z,39.19
2019-04-16T23:46:53.463Z,39.22
2019-04-16T23:49:28.893Z,39.32
2019-04-16T23:52:04.397Z,39.54
2019-04-16T23:54:40.753Z,39.62
2019-04-16T23:57:29.113Z,39.89
